Eden Valley, Minnesota
Current Conditions -  °F | °C
As of 5:14 PM on Wednesday 26 Nov 2014 (Local Time) from KPEX Reporting Station
Overcast Overcast  
Wind Chill:   Ceiling: 11000
Heat Index: 16°   Visibility: 10mi
Dew Point:   Wind: 8mph
Humidity: 70%   Direction: 290°WNW
Pressure: 30.31"   Gusts: NA
Location:  45.33°N, 94.55°W
Report Text: KPEX 262314Z AUTO 29007KT 10SM OVC110 M09/M13 A3031 RMK AO2 T10871132
Loading
Personal Weather Stations






























Interactive Weather Map New forecast layout! Learn more

10-Day Weather Forecast

Advertisements
Track Severe Weather on mobile